createdAt,value
2018-03-06T00:00:02.042Z,90.8
2018-03-06T00:02:04.967Z,90.8
2018-03-06T00:04:08.319Z,90.8
2018-03-06T00:07:09.344Z,90.8
2018-03-06T00:10:09.027Z,90.8
2018-03-06T00:14:13.701Z,91
2018-03-06T00:16:16.742Z,90.9
2018-03-06T00:21:16.588Z,90.7
2018-03-06T00:22:17.255Z,90.7
2018-03-06T00:24:17.402Z,90.8
2018-03-06T00:26:20.058Z,90.9
2018-03-06T00:28:23.052Z,90.8
2018-03-06T00:30:24.442Z,90.9
2018-03-06T00:32:27.447Z,90.8
2018-03-06T00:35:31.223Z,90.7
2018-03-06T00:37:31.067Z,90.8
2018-03-06T00:40:32.600Z,90.9
2018-03-06T00:42:35.332Z,90.9
2018-03-06T00:44:37.798Z,90.9
2018-03-06T00:46:40.261Z,90.9
2018-03-06T00:48:45.006Z,91
2018-03-06T00:50:44.836Z,91
2018-03-06T00:54:47.533Z,91
2018-03-06T00:56:49.009Z,91
2018-03-06T00:58:48.961Z,91.1
2018-03-06T01:00:52.315Z,91.2
2018-03-06T01:02:52.808Z,91.3
2018-03-06T01:04:57.160Z,91.2
2018-03-06T01:07:56.822Z,91.1
2018-03-06T01:09:56.650Z,91.3
2018-03-06T01:12:00.172Z,91.3
2018-03-06T01:14:00.648Z,91.2
2018-03-06T01:16:03.194Z,91.3
2018-03-06T01:20:06.053Z,91.3
2018-03-06T01:22:05.952Z,91.4
2018-03-06T01:23:09.080Z,91.5
2018-03-06T01:25:10.956Z,91.5
2018-03-06T01:27:15.107Z,91.4
2018-03-06T01:29:14.935Z,91.6
2018-03-06T01:33:21.099Z,91.4
2018-03-06T01:35:23.803Z,91.5
2018-03-06T01:38:23.639Z,91.5
2018-03-06T01:43:28.928Z,91.5
2018-03-06T01:45:31.599Z,91.4
2018-03-06T01:47:33.859Z,91.3
2018-03-06T01:50:39.073Z,91.4
2018-03-06T01:52:44.018Z,91.4
2018-03-06T01:53:47.715Z,91.5
2018-03-06T01:55:49.963Z,91.5
2018-03-06T01:59:50.132Z,91.3
2018-03-06T02:01:52.655Z,91.3
2018-03-06T02:04:56.036Z,91.5
2018-03-06T02:06:59.106Z,91.5
2018-03-06T02:09:01.413Z,91.6
2018-03-06T02:11:01.513Z,91.6
2018-03-06T02:13:04.048Z,91.7
2018-03-06T02:16:07.929Z,91.7
2018-03-06T02:18:11.385Z,91.7
2018-03-06T02:20:11.405Z,91.8
2018-03-06T02:22:15.519Z,91.8
2018-03-06T02:25:21.774Z,91.9
2018-03-06T02:27:24.415Z,91.7
2018-03-06T02:29:26.765Z,91.7
2018-03-06T02:31:29.404Z,91.8
2018-03-06T02:33:31.572Z,91.9
2018-03-06T02:34:34.442Z,91.9
2018-03-06T02:38:37.485Z,92
2018-03-06T02:40:38.463Z,91.9
2018-03-06T02:42:38.589Z,92
2018-03-06T02:44:41.045Z,91.9
2018-03-06T02:48:45.843Z,91.9
2018-03-06T02:51:47.798Z,91.8
2018-03-06T02:53:51.280Z,91.8
2018-03-06T02:54:55.473Z,91.9
2018-03-06T02:56:58.787Z,91.9
2018-03-06T02:58:58.644Z,91.9
2018-03-06T03:01:02.306Z,92
2018-03-06T03:04:04.905Z,92
2018-03-06T03:05:09.212Z,92.1
2018-03-06T03:07:09.080Z,92.1
2018-03-06T03:09:12.700Z,92.1
2018-03-06T03:11:12.710Z,92.1
2018-03-06T03:13:14.692Z,92
2018-03-06T03:15:15.452Z,92.2
2018-03-06T03:17:18.122Z,92
2018-03-06T03:19:19.511Z,92
2018-03-06T03:22:21.845Z,91.9
2018-03-06T03:24:25.102Z,92
2018-03-06T03:25:25.672Z,92
2018-03-06T03:27:27.837Z,92
2018-03-06T03:29:30.364Z,92
2018-03-06T03:32:35.704Z,91.9
2018-03-06T03:37:41.538Z,91.9
2018-03-06T03:39:43.594Z,92
2018-03-06T03:41:46.032Z,92
2018-03-06T03:43:48.447Z,92
2018-03-06T03:45:52.590Z,91.9
2018-03-06T03:47:52.390Z,91.9
2018-03-06T03:49:52.392Z,91.9
2018-03-06T03:51:55.539Z,91.9
2018-03-06T03:53:58.353Z,92
2018-03-06T03:56:01.430Z,91.9
2018-03-06T03:58:02.961Z,91.9
2018-03-06T04:02:05.004Z,91.8
2018-03-06T04:05:04.744Z,91.9
2018-03-06T04:06:08.787Z,91.8
2018-03-06T04:08:12.135Z,91.9
2018-03-06T04:12:15.249Z,92.2
2018-03-06T04:16:22.263Z,92.2
2018-03-06T04:19:21.989Z,92
2018-03-06T04:21:24.374Z,92.1
2018-03-06T04:23:26.391Z,92.1
2018-03-06T04:25:29.680Z,92.1
2018-03-06T04:29:33.601Z,92.1
2018-03-06T04:31:33.653Z,92.1
2018-03-06T04:33:36.941Z,92.2
2018-03-06T04:35:39.384Z,92.2
2018-03-06T04:37:43.348Z,92.3
2018-03-06T04:39:43.188Z,92.4
2018-03-06T04:41:43.020Z,92.3
2018-03-06T04:43:46.526Z,92.3
2018-03-06T04:47:50.304Z,92.3
2018-03-06T04:50:53.227Z,92.3
2018-03-06T04:52:53.173Z,92.3
2018-03-06T04:54:56.370Z,92.3
2018-03-06T04:59:02.865Z,92
2018-03-06T05:01:02.849Z,92.1
2018-03-06T05:03:06.995Z,92.1
2018-03-06T05:06:09.046Z,92.3
2018-03-06T05:09:12.971Z,92.2
2018-03-06T05:11:15.589Z,92.1
2018-03-06T05:13:15.523Z,92.2
2018-03-06T05:15:15.421Z,92.1
2018-03-06T05:17:19.879Z,92.1
2018-03-06T05:19:19.685Z,92.1
2018-03-06T05:21:22.844Z,92.3
2018-03-06T05:23:22.635Z,92.2
2018-03-06T05:25:25.916Z,92.3
2018-03-06T05:27:26.677Z,92.1
2018-03-06T05:30:29.054Z,92.1
2018-03-06T05:32:31.428Z,92.1
2018-03-06T05:34:33.641Z,92.1
2018-03-06T05:37:36.966Z,92.2
2018-03-06T05:41:39.147Z,92.1
2018-03-06T05:43:39.161Z,92.2
2018-03-06T05:45:42.285Z,92.3
2018-03-06T05:48:48.346Z,92.3
2018-03-06T05:50:51.217Z,92.4
2018-03-06T05:52:53.741Z,92.3
2018-03-06T05:54:55.783Z,92.3
2018-03-06T05:56:58.003Z,92.3
2018-03-06T05:58:01.226Z,92.4
2018-03-06T06:01:03.197Z,92.4
2018-03-06T06:03:05.551Z,92.3
2018-03-06T06:05:06.176Z,92.4
2018-03-06T06:07:06.452Z,92.4
2018-03-06T06:08:07.043Z,92.5
2018-03-06T06:10:09.796Z,92.5
2018-03-06T06:12:11.532Z,92.5
2018-03-06T06:14:12.683Z,92.5
2018-03-06T06:18:12.703Z,92.5
2018-03-06T06:21:12.328Z,92.4
2018-03-06T06:24:11.910Z,92.5
2018-03-06T06:26:11.570Z,92.4
2018-03-06T06:29:11.754Z,92.4
2018-03-06T06:31:11.370Z,92.6
2018-03-06T06:39:10.415Z,92.3
2018-03-06T06:41:10.197Z,92.4
2018-03-06T06:47:09.520Z,92.3
2018-03-06T06:48:09.811Z,92.4
2018-03-06T06:50:09.443Z,92.4
2018-03-06T06:52:09.306Z,92.4
2018-03-06T06:57:08.209Z,92.3
2018-03-06T06:58:08.797Z,92.3
2018-03-06T07:00:08.442Z,92.3
2018-03-06T07:03:11.047Z,92.2
2018-03-06T07:05:10.678Z,92.1
2018-03-06T07:07:10.315Z,92.1
2018-03-06T07:09:10.361Z,92.1
2018-03-06T07:12:12.682Z,92.2
2018-03-06T07:15:12.314Z,92.1
2018-03-06T07:20:12.020Z,91.8
2018-03-06T07:22:11.815Z,91.8
2018-03-06T07:25:11.246Z,91.9
2018-03-06T07:27:10.878Z,91.6
2018-03-06T07:28:11.188Z,91.8
2018-03-06T07:33:10.320Z,91.5
2018-03-06T07:36:09.711Z,91.8
2018-03-06T07:38:10.169Z,91.4
2018-03-06T07:40:09.941Z,91.5
2018-03-06T07:42:10.592Z,91.2
2018-03-06T07:44:10.473Z,91.2
2018-03-06T07:46:10.132Z,91.3
2018-03-06T07:48:10.156Z,91.1
2018-03-06T07:50:10.819Z,91.2
2018-03-06T07:52:10.631Z,91.2
2018-03-06T07:54:10.781Z,91.3
2018-03-06T07:57:10.686Z,91.1
2018-03-06T07:58:11.071Z,91.1
2018-03-06T08:00:10.734Z,90.9
2018-03-06T08:02:10.399Z,90.7
2018-03-06T08:04:10.257Z,90.7
2018-03-06T08:06:09.912Z,90.7
2018-03-06T08:10:09.450Z,90.7
2018-03-06T08:14:08.583Z,90.9
2018-03-06T08:18:08.158Z,90.3
2018-03-06T08:20:07.785Z,90.2
2018-03-06T08:23:07.920Z,90.5
2018-03-06T08:25:07.553Z,90.4
2018-03-06T08:27:07.421Z,90.6
2018-03-06T08:30:07.468Z,90.3
2018-03-06T08:33:06.909Z,90.7
2018-03-06T08:35:06.827Z,90.5
2018-03-06T08:38:06.698Z,90
2018-03-06T08:43:05.847Z,89.9
2018-03-06T08:45:05.779Z,90
2018-03-06T08:47:05.403Z,89.9
2018-03-06T08:50:05.393Z,89.5
2018-03-06T08:52:05.054Z,89.3
2018-03-06T08:54:04.676Z,89
2018-03-06T08:58:04.534Z,89
2018-03-06T09:00:06.834Z,88.7
2018-03-06T09:02:06.484Z,89
2018-03-06T09:06:05.638Z,89.5
2018-03-06T09:08:05.706Z,89.4
2018-03-06T09:10:05.430Z,89.5
2018-03-06T09:12:05.100Z,89.2
2018-03-06T09:14:04.737Z,89.4
2018-03-06T09:17:05.168Z,89.5
2018-03-06T09:18:05.463Z,89.2
2018-03-06T09:20:05.327Z,89.3
2018-03-06T09:22:05.015Z,89.8
2018-03-06T09:25:04.413Z,89.4
2018-03-06T09:28:04.528Z,89
2018-03-06T09:30:04.181Z,89.3
2018-03-06T09:33:03.554Z,89.5
2018-03-06T09:39:02.809Z,88.1
2018-03-06T09:44:01.788Z,88.5
2018-03-06T09:46:01.653Z,87.6
2018-03-06T09:48:02.115Z,88.1
2018-03-06T09:51:01.594Z,88
2018-03-06T09:53:01.253Z,88.5
2018-03-06T09:55:01.217Z,88.5
2018-03-06T09:57:00.852Z,88.4
2018-03-06T09:58:01.252Z,88.7
2018-03-06T10:02:00.458Z,88.5
2018-03-06T10:06:59.569Z,87.5
2018-03-06T10:08:00.173Z,87.8
2018-03-06T10:09:59.828Z,87.5
2018-03-06T10:11:59.509Z,87.5
2018-03-06T10:15:58.695Z,87.7
2018-03-06T10:17:58.936Z,87.4
2018-03-06T10:18:58.884Z,87.2
2018-03-06T10:20:58.525Z,87.7
2018-03-06T10:22:58.202Z,88.3
2018-03-06T10:24:57.854Z,88.7
2018-03-06T10:26:57.492Z,88.9
2018-03-06T10:27:57.807Z,88.9
2018-03-06T10:29:57.447Z,88.5
2018-03-06T10:31:57.139Z,88.7
2018-03-06T10:34:56.652Z,88.9
2018-03-06T10:36:56.258Z,88.9
2018-03-06T10:37:56.548Z,89.2
2018-03-06T10:39:56.166Z,89.4
2018-03-06T10:42:55.584Z,88.9
2018-03-06T10:44:55.327Z,88.9
2018-03-06T10:46:54.960Z,89.3
2018-03-06T10:48:55.064Z,89
2018-03-06T10:50:54.701Z,88.7
2018-03-06T10:52:54.341Z,88.4
2018-03-06T10:54:54.005Z,87.1
2018-03-06T10:57:53.811Z,87.8
2018-03-06T10:59:53.450Z,88.5
2018-03-06T11:01:53.101Z,87.8
2018-03-06T11:04:52.531Z,87.3
2018-03-06T11:06:52.180Z,86.2
2018-03-06T11:07:52.507Z,87.2
2018-03-06T11:09:52.163Z,87.3
2018-03-06T11:11:51.812Z,87.3
2018-03-06T11:13:52.457Z,87.1
2018-03-06T11:15:52.118Z,86.1
2018-03-06T11:17:52.157Z,87.1
2018-03-06T11:19:51.876Z,86.2
2018-03-06T11:21:51.505Z,86.9
2018-03-06T11:23:51.396Z,87.3
2018-03-06T11:25:51.071Z,86.5
2018-03-06T11:27:54.064Z,86
2018-03-06T11:29:53.824Z,85.4
2018-03-06T11:31:53.608Z,85.7
2018-03-06T11:33:53.257Z,85.7
2018-03-06T11:35:52.919Z,86.1
2018-03-06T11:37:52.948Z,85.8
2018-03-06T11:39:52.627Z,85.4
2018-03-06T11:41:53.312Z,85.6
2018-03-06T11:45:52.452Z,85
2018-03-06T11:47:52.742Z,85.4
2018-03-06T11:49:52.394Z,84.1
2018-03-06T11:55:51.248Z,83.6
2018-03-06T11:57:51.554Z,84.9
2018-03-06T12:01:50.679Z,83.6
2018-03-06T12:03:50.367Z,82.8
2018-03-06T12:05:50.062Z,83.3
2018-03-06T12:08:50.553Z,83.8
2018-03-06T12:10:50.200Z,83
2018-03-06T12:12:49.850Z,83.4
2018-03-06T12:14:49.715Z,83.5
2018-03-06T12:16:49.343Z,82.8
2018-03-06T12:17:49.702Z,83.2
2018-03-06T12:19:49.357Z,83
2018-03-06T12:21:48.987Z,81.3
2018-03-06T12:24:48.379Z,81.6
2018-03-06T12:25:48.297Z,82.2
2018-03-06T12:27:48.329Z,82.7
2018-03-06T12:29:47.990Z,82.6
2018-03-06T12:31:47.652Z,84
2018-03-06T12:33:47.311Z,81.9
2018-03-06T12:35:47.178Z,81.7
2018-03-06T12:37:47.361Z,82.6
2018-03-06T12:40:46.727Z,82.1
2018-03-06T12:44:45.881Z,81.8
2018-03-06T12:46:45.537Z,81.5
2018-03-06T12:47:45.827Z,81.3
2018-03-06T12:49:45.463Z,81.2
2018-03-06T12:51:48.333Z,81.9
2018-03-06T12:53:47.956Z,82.8
2018-03-06T12:56:48.529Z,82.1
2018-03-06T12:57:48.813Z,82.1
2018-03-06T12:59:48.478Z,82.2
2018-03-06T13:01:48.096Z,82.5
2018-03-06T13:03:47.754Z,82.6
2018-03-06T13:05:47.464Z,82.5
2018-03-06T13:07:47.537Z,81.8
2018-03-06T13:11:46.899Z,82.5
2018-03-06T13:13:46.568Z,82.7
2018-03-06T13:15:46.196Z,83
2018-03-06T13:18:46.021Z,82.8
2018-03-06T13:20:45.728Z,83.1
2018-03-06T13:22:45.376Z,83.5
2018-03-06T13:24:45.014Z,83.6
2018-03-06T13:26:44.653Z,85
2018-03-06T13:27:45.963Z,85.9
2018-03-06T13:29:45.859Z,86.9
2018-03-06T13:35:44.513Z,88.5
2018-03-06T13:38:47.266Z,88.6
2018-03-06T13:40:47.215Z,87.1
2018-03-06T13:42:47.074Z,86.6
2018-03-06T13:47:47.086Z,84.8
2018-03-06T13:49:46.716Z,81
2018-03-06T13:51:46.388Z,80.2
2018-03-06T13:53:46.037Z,78.4
2018-03-06T13:55:45.735Z,78.7
2018-03-06T13:57:45.795Z,79.2
2018-03-06T13:59:45.566Z,79.5
2018-03-06T14:01:45.347Z,80.1
2018-03-06T14:05:44.738Z,80.3
2018-03-06T14:07:44.873Z,79.5
2018-03-06T14:09:44.559Z,79.5
2018-03-06T14:11:45.759Z,79.9
2018-03-06T14:13:45.385Z,80
2018-03-06T14:15:45.019Z,80.3
2018-03-06T14:17:45.069Z,81.3
2018-03-06T14:20:44.477Z,81.6
2018-03-06T14:22:44.150Z,82.1
2018-03-06T14:24:43.868Z,82.6
2018-03-06T14:26:43.505Z,83.3
2018-03-06T14:27:44.850Z,83.5
2018-03-06T14:31:43.958Z,83.5
2018-03-06T14:33:43.627Z,83.3
2018-03-06T14:35:43.304Z,83.2
2018-03-06T14:37:43.402Z,83.1
2018-03-06T14:39:43.319Z,83.1
2018-03-06T14:41:42.968Z,83.8
2018-03-06T14:43:42.661Z,83.5
2018-03-06T14:45:42.317Z,83.2
2018-03-06T14:47:42.366Z,82.7
2018-03-06T14:49:42.029Z,82.6
2018-03-06T14:51:41.700Z,81.9
2018-03-06T14:54:41.106Z,80.7
2018-03-06T14:56:40.788Z,81
2018-03-06T14:57:41.084Z,80.9
2018-03-06T14:59:40.741Z,81.2
2018-03-06T15:01:40.409Z,81.3
2018-03-06T15:03:40.055Z,81
2018-03-06T15:05:39.670Z,81.2
2018-03-06T15:07:39.740Z,81.3
2018-03-06T15:09:39.384Z,81.5
2018-03-06T15:11:39.720Z,81.4
2018-03-06T15:13:39.369Z,81.4
2018-03-06T15:15:39.252Z,81
2018-03-06T15:17:39.347Z,81.2
2018-03-06T15:21:38.458Z,80.1
2018-03-06T15:23:38.155Z,80.8
2018-03-06T15:25:37.785Z,80.5
2018-03-06T15:27:38.085Z,80.9
2018-03-06T15:31:37.445Z,81
2018-03-06T15:34:36.881Z,81.4
2018-03-06T15:36:36.772Z,81.7
2018-03-06T15:38:36.828Z,81.8
2018-03-06T15:39:36.741Z,82
2018-03-06T15:40:36.636Z,81.8
2018-03-06T15:42:36.290Z,82.2
2018-03-06T15:44:35.945Z,82.2
2018-03-06T15:46:35.577Z,82.5
2018-03-06T15:47:36.101Z,82.7
2018-03-06T15:50:35.530Z,82.4
2018-03-06T15:52:35.406Z,82.8
2018-03-06T15:56:34.878Z,82.8
2018-03-06T15:57:35.192Z,83
2018-03-06T16:00:37.219Z,83
2018-03-06T16:04:37.045Z,83.3
2018-03-06T16:06:36.674Z,83.4
2018-03-06T16:07:36.989Z,83.4
2018-03-06T16:09:36.846Z,83.1
2018-03-06T16:13:35.973Z,82.9
2018-03-06T16:16:35.403Z,82.8
2018-03-06T16:20:36.442Z,82.9
2018-03-06T16:25:35.963Z,82.3
2018-03-06T16:29:35.758Z,82
2018-03-06T16:31:38.000Z,82
2018-03-06T16:34:38.585Z,82
2018-03-06T16:36:38.536Z,81.9
2018-03-06T16:37:38.822Z,82
2018-03-06T16:42:37.732Z,81.6
2018-03-06T16:44:37.363Z,81.5
2018-03-06T16:46:37.045Z,81.1
2018-03-06T16:47:37.381Z,80.5
2018-03-06T16:49:37.012Z,80.2
2018-03-06T16:51:36.634Z,80.5
2018-03-06T16:53:36.296Z,80.7
2018-03-06T16:55:35.939Z,80.6
2018-03-06T16:57:36.034Z,81.3
2018-03-06T16:59:35.686Z,81.5
2018-03-06T17:01:35.342Z,82.4
2018-03-06T17:04:34.749Z,83
2018-03-06T17:06:34.380Z,83.7
2018-03-06T17:09:34.169Z,83.4
2018-03-06T17:11:33.814Z,83.5
2018-03-06T17:13:33.492Z,83.5
2018-03-06T17:15:33.257Z,83.7
2018-03-06T17:17:33.300Z,83.4
2018-03-06T17:19:33.012Z,83.6
2018-03-06T17:21:32.643Z,83.6
2018-03-06T17:23:32.333Z,83.7
2018-03-06T17:25:32.020Z,83.7
2018-03-06T17:28:31.870Z,84.2
2018-03-06T17:31:31.290Z,84.2
2018-03-06T17:33:30.947Z,84.3
2018-03-06T17:37:30.602Z,84.1
2018-03-06T17:39:30.262Z,84.2
2018-03-06T17:41:29.929Z,84.1
2018-03-06T17:43:29.575Z,84.1
2018-03-06T17:45:29.428Z,84
2018-03-06T17:47:29.584Z,83.7
2018-03-06T17:49:29.228Z,83.6
2018-03-06T17:52:28.722Z,83.4
2018-03-06T17:54:28.379Z,83.1
2018-03-06T18:01:27.512Z,82
2018-03-06T18:03:27.180Z,82.2
2018-03-06T18:05:26.837Z,81.9
2018-03-06T18:07:26.900Z,81.8
2018-03-06T18:11:26.091Z,82
2018-03-06T18:13:25.793Z,82.3
2018-03-06T18:15:25.486Z,81.7
2018-03-06T18:17:25.556Z,81.7
2018-03-06T18:19:25.237Z,81.7
2018-03-06T18:22:24.655Z,82.3
2018-03-06T18:25:24.086Z,82.1
2018-03-06T18:27:24.130Z,81.9
2018-03-06T18:30:23.517Z,82.7
2018-03-06T18:32:23.165Z,81.8
2018-03-06T18:37:23.050Z,81.8
2018-03-06T18:39:22.788Z,81.5
2018-03-06T18:41:22.445Z,81.8
2018-03-06T18:45:21.638Z,81.9
2018-03-06T18:47:21.762Z,82
2018-03-06T18:49:21.454Z,81.5
2018-03-06T18:51:21.106Z,81.8
2018-03-06T18:54:20.585Z,81.3
2018-03-06T18:56:20.285Z,81
2018-03-06T18:57:20.588Z,81
2018-03-06T19:00:20.083Z,81.2
2018-03-06T19:02:19.741Z,80.9
2018-03-06T19:04:19.400Z,81.3
2018-03-06T19:06:19.056Z,81.5
2018-03-06T19:07:19.415Z,81.9
2018-03-06T19:09:19.078Z,81.6
2018-03-06T19:12:18.713Z,81.6
2018-03-06T19:14:18.342Z,82
2018-03-06T19:16:17.969Z,82.1
2018-03-06T19:17:18.312Z,82.3
2018-03-06T19:19:17.975Z,82.3
2018-03-06T19:21:17.631Z,82.5
2018-03-06T19:24:17.039Z,82.7
2018-03-06T19:26:19.493Z,82.5
2018-03-06T19:29:19.273Z,82.7
2018-03-06T19:32:18.645Z,82.5
2018-03-06T19:34:18.303Z,82.8
2018-03-06T19:36:17.943Z,82.9
2018-03-06T19:37:18.276Z,83.1
2018-03-06T19:42:17.267Z,83
2018-03-06T19:46:16.766Z,83.1
2018-03-06T19:47:17.067Z,83.4
2018-03-06T19:49:16.710Z,83.5
2018-03-06T19:55:15.962Z,83
2018-03-06T19:58:16.179Z,83.1
2018-03-06T20:03:18.333Z,83.2
2018-03-06T20:05:27.761Z,83.7
2018-03-06T20:07:27.854Z,84
2018-03-06T20:09:31.460Z,83.8
2018-03-06T20:12:30.878Z,83.8
2018-03-06T20:14:30.537Z,84
2018-03-06T20:16:30.182Z,84
2018-03-06T20:17:30.912Z,84.2
2018-03-06T20:19:30.550Z,84.1
2018-03-06T20:22:30.008Z,84.3
2018-03-06T20:24:29.725Z,84.3
2018-03-06T20:26:29.361Z,84.5
2018-03-06T20:27:29.718Z,84.6
2018-03-06T20:31:28.873Z,84.5
2018-03-06T20:33:28.552Z,84.6
2018-03-06T20:36:27.948Z,85
2018-03-06T20:38:28.011Z,85
2018-03-06T20:40:27.667Z,84.5
2018-03-06T20:42:27.344Z,84.4
2018-03-06T20:44:27.002Z,84.3
2018-03-06T20:46:26.676Z,84.5
2018-03-06T20:47:27.019Z,84.6
2018-03-06T20:49:26.677Z,84.7
2018-03-06T20:54:25.658Z,84.5
2018-03-06T20:56:25.472Z,84.8
2018-03-06T20:59:25.418Z,84.5
2018-03-06T21:01:25.099Z,84.6
2018-03-06T21:04:24.507Z,84.3
2018-03-06T21:06:24.158Z,84.2
2018-03-06T21:10:23.734Z,83.8
2018-03-06T21:13:23.149Z,83.8
2018-03-06T21:15:22.809Z,83.9
2018-03-06T21:18:22.609Z,84.2
2018-03-06T21:20:22.671Z,84
2018-03-06T21:22:22.311Z,84.1
2018-03-06T21:24:21.948Z,84.2
2018-03-06T21:26:21.616Z,84.2
2018-03-06T21:30:21.152Z,84.4
2018-03-06T21:33:20.581Z,84.2
2018-03-06T21:39:19.634Z,84
2018-03-06T21:41:19.277Z,84.2
2018-03-06T21:44:18.733Z,84.2
2018-03-06T21:46:18.546Z,84.6
2018-03-06T21:47:18.989Z,84.6
2018-03-06T21:49:18.648Z,84.7
2018-03-06T21:54:17.622Z,84.5
2018-03-06T21:56:17.273Z,84.5
2018-03-06T22:00:16.896Z,84.3
2018-03-06T22:02:16.542Z,84.7
2018-03-06T22:04:16.191Z,84.8
2018-03-06T22:07:16.016Z,84.8
2018-03-06T22:09:15.700Z,84.9
2018-03-06T22:12:15.599Z,84.8
2018-03-06T22:15:14.990Z,84.9
2018-03-06T22:17:15.052Z,85
2018-03-06T22:20:14.461Z,84.8
2018-03-06T22:22:14.110Z,85
2018-03-06T22:24:13.754Z,85.2
2018-03-06T22:26:13.402Z,85
2018-03-06T22:35:11.672Z,84.4
2018-03-06T22:37:11.751Z,85
2018-03-06T22:39:11.393Z,85.1
2018-03-06T22:41:11.069Z,85.3
2018-03-06T22:43:10.705Z,85.3
2018-03-06T22:46:10.079Z,85.4
2018-03-06T22:47:10.383Z,85.6
2018-03-06T22:52:09.292Z,85.7
2018-03-06T22:54:08.921Z,85.6
2018-03-06T22:56:08.530Z,85.8
2018-03-06T22:58:08.619Z,85.9
2018-03-06T23:00:08.280Z,86
2018-03-06T23:06:06.912Z,85.7
2018-03-06T23:07:07.216Z,86
2018-03-06T23:09:06.864Z,86.2
2018-03-06T23:13:06.157Z,85.9
2018-03-06T23:17:05.693Z,85.7
2018-03-06T23:19:05.345Z,85.9
2018-03-06T23:21:05.006Z,85.8
2018-03-06T23:23:04.707Z,86.2
2018-03-06T23:25:04.347Z,86.2
2018-03-06T23:27:04.451Z,86.3
2018-03-06T23:29:04.119Z,86.3
2018-03-06T23:35:02.941Z,86.1
2018-03-06T23:37:02.999Z,86.1
2018-03-06T23:39:02.654Z,86.1
2018-03-06T23:44:01.558Z,86.5
2018-03-06T23:47:01.320Z,86.4
2018-03-06T23:49:00.964Z,86.5
2018-03-06T23:51:00.628Z,87
2018-03-06T23:53:00.263Z,87
2018-03-06T23:54:59.886Z,86.9
2018-03-06T23:57:59.791Z,86.8
2018-03-06T23:59:59.455Z,86.8
